createdAt,value
2023-05-11T04:31:33.021Z,485.9231
2023-05-11T04:32:35.011Z,478.7692
2023-05-11T04:33:36.995Z,479.0769
2023-05-11T04:34:39.241Z,475.8462
2023-05-11T04:35:41.129Z,476.6923
2023-05-11T04:36:43.139Z,478.5385
2023-05-11T04:37:45.188Z,480.3077
2023-05-11T04:38:47.202Z,481.0000
2023-05-11T04:39:49.316Z,481.4615
2023-05-11T04:40:51.287Z,484.3077
2023-05-11T04:41:53.335Z,486.3077
2023-05-11T04:42:55.402Z,487.7692
2023-05-11T04:43:57.420Z,488.9231
2023-05-11T04:44:59.642Z,491.2308
2023-05-11T04:46:01.545Z,497.4615
2023-05-11T04:47:03.650Z,495.5385
2023-05-11T04:48:05.619Z,486.2308
2023-05-11T04:49:07.701Z,486.4615
2023-05-11T04:50:09.706Z,484.4615
2023-05-11T04:51:11.859Z,484.4615
2023-05-11T04:52:13.815Z,489.0000
2023-05-11T04:53:15.862Z,490.3077
2023-05-11T04:54:17.923Z,490.5385
2023-05-11T04:55:19.944Z,490.6154
2023-05-11T04:56:21.973Z,493.2308
2023-05-11T04:57:24.149Z,494.3077
2023-05-11T04:58:26.095Z,497.2308
2023-05-11T04:59:28.160Z,494.2308
2023-05-11T05:00:30.182Z,495.9231
2023-05-11T05:01:32.297Z,496.2308
2023-05-11T05:02:34.299Z,494.7692
2023-05-11T05:03:36.456Z,493.6923
2023-05-11T05:04:38.390Z,490.6154
2023-05-11T05:05:40.445Z,491.4615
2023-05-11T05:06:42.452Z,490.3846
2023-05-11T05:07:44.522Z,488.3846
2023-05-11T05:08:46.553Z,497.0000
2023-05-11T05:09:48.698Z,494.3846
2023-05-11T05:10:50.664Z,490.3077
2023-05-11T05:11:52.726Z,488.9231
2023-05-11T05:12:54.783Z,486.8462
2023-05-11T05:13:56.820Z,487.9231
2023-05-11T05:14:58.873Z,489.2308
2023-05-11T05:16:01.021Z,488.3077
2023-05-11T05:17:03.022Z,488.6154
2023-05-11T05:18:05.053Z,489.6154
2023-05-11T05:19:07.097Z,488.9231
2023-05-11T05:20:09.092Z,486.4615
2023-05-11T05:21:11.126Z,488.9231
2023-05-11T05:22:13.307Z,488.6923
2023-05-11T05:23:15.285Z,487.0000
2023-05-11T05:24:17.287Z,486.8462
2023-05-11T05:25:19.370Z,487.3077
2023-05-11T05:26:21.396Z,484.1538
2023-05-11T05:27:23.477Z,482.8462
2023-05-11T05:28:25.505Z,480.7692
2023-05-11T05:29:27.515Z,480.5385
2023-05-11T05:30:29.603Z,480.6154
2023-05-11T05:31:31.674Z,479.1538
2023-05-11T05:32:33.717Z,476.1538
2023-05-11T05:33:35.722Z,477.3077
2023-05-11T05:34:37.782Z,480.2308
2023-05-11T05:35:39.816Z,483.6923
2023-05-11T05:36:41.882Z,492.8462
2023-05-11T05:37:44.955Z,501.2308
2023-05-11T05:38:47.882Z,509.4615
2023-05-11T05:39:49.931Z,511.6667
2023-05-11T05:40:50.302Z,525.3846
2023-05-11T05:41:52.202Z,530.9231
2023-05-11T05:42:54.176Z,531.1539
2023-05-11T05:43:57.872Z,531.6923
2023-05-11T05:44:58.267Z,536.0769
2023-05-11T05:46:00.899Z,540.2308
2023-05-11T05:47:02.372Z,549.7692
2023-05-11T05:48:04.439Z,578.9231
2023-05-11T05:49:06.488Z,569.4615
2023-05-11T05:50:08.537Z,568.8461
2023-05-11T05:51:10.544Z,581.3077
2023-05-11T05:52:12.621Z,580.0769
2023-05-11T05:53:14.648Z,606.0000
2023-05-11T05:54:16.687Z,608.5385
2023-05-11T05:55:18.736Z,615.0000
2023-05-11T05:56:20.797Z,599.3846
2023-05-11T05:57:22.897Z,601.6154
2023-05-11T05:58:27.015Z,611.8461
2023-05-11T05:59:26.957Z,608.6667
2023-05-11T06:00:29.049Z,606.0769
2023-05-11T06:01:31.325Z,611.7692
2023-05-11T06:02:33.182Z,617.7692
2023-05-11T06:03:35.239Z,639.3846
2023-05-11T06:04:37.196Z,633.0000
2023-05-11T06:05:39.239Z,626.7692
2023-05-11T06:06:41.320Z,623.6923
2023-05-11T06:07:46.683Z,622.0769
2023-05-11T06:08:45.374Z,677.8461
2023-05-11T06:09:47.436Z,672.4615
2023-05-11T06:10:49.488Z,664.7692
2023-05-11T06:11:51.591Z,667.0000
2023-05-11T06:12:53.586Z,682.6154
2023-05-11T06:13:55.655Z,691.0769
2023-05-11T06:14:59.344Z,688.5385
2023-05-11T06:15:59.858Z,690.9231
2023-05-11T06:17:01.849Z,684.0000
2023-05-11T06:18:03.857Z,685.5385
2023-05-11T06:19:06.073Z,687.4615
2023-05-11T06:20:07.939Z,688.0769
2023-05-11T06:21:09.992Z,691.6154
2023-05-11T06:22:12.070Z,697.9231
2023-05-11T06:23:14.085Z,697.6923
2023-05-11T06:24:16.163Z,696.5385
2023-05-11T06:25:18.159Z,696.3077
2023-05-11T06:26:20.189Z,715.8461
2023-05-11T06:27:22.231Z,727.8461
2023-05-11T06:28:24.299Z,732.8461
2023-05-11T06:29:26.397Z,729.0769
2023-05-11T06:30:28.392Z,728.8461
2023-05-11T06:31:30.475Z,732.0000
2023-05-11T06:32:33.434Z,735.2308
2023-05-11T06:33:34.764Z,753.2308
2023-05-11T06:34:36.676Z,750.6923
2023-05-11T06:35:38.598Z,757.0000
2023-05-11T06:36:40.706Z,758.1539
2023-05-11T06:37:42.689Z,768.5385
2023-05-11T06:38:44.784Z,765.7692
2023-05-11T06:39:47.461Z,758.9231
2023-05-11T06:40:48.864Z,768.6154
2023-05-11T06:41:51.031Z,768.0000
2023-05-11T06:42:52.964Z,761.6923
2023-05-11T06:43:56.070Z,747.2308
2023-05-11T06:44:57.092Z,748.8333
2023-05-11T06:45:59.074Z,743.0769
2023-05-11T06:47:01.103Z,746.6923
2023-05-11T06:48:03.263Z,734.5385
2023-05-11T06:49:05.240Z,704.3077
2023-05-11T06:50:07.356Z,699.6923
2023-05-11T06:51:09.922Z,704.0000
2023-05-11T06:52:11.327Z,713.5385
2023-05-11T06:53:13.965Z,720.1539
2023-05-11T06:54:17.448Z,729.0000
2023-05-11T06:55:17.482Z,738.6923
2023-05-11T06:56:19.713Z,740.9231
2023-05-11T06:57:23.480Z,741.0769
2023-05-11T06:58:23.619Z,734.8461
2023-05-11T06:59:26.414Z,730.7692
2023-05-11T07:00:27.695Z,728.2308
2023-05-11T07:01:29.786Z,724.5385
2023-05-11T07:02:31.786Z,743.8461
2023-05-11T07:03:34.201Z,779.9231
2023-05-11T07:04:35.909Z,763.8461
2023-05-11T07:05:37.927Z,762.6154
2023-05-11T07:06:40.024Z,756.2308
2023-05-11T07:07:42.020Z,752.7692
2023-05-11T07:08:44.044Z,745.7692
2023-05-11T07:09:46.088Z,746.5385
2023-05-11T07:10:48.162Z,733.8461
2023-05-11T07:11:50.348Z,722.4615
2023-05-11T07:12:52.278Z,721.3077
2023-05-11T07:13:54.328Z,715.1539
2023-05-11T07:15:04.362Z,711.1539
2023-05-11T07:15:59.916Z,708.5833
2023-05-11T07:17:00.448Z,701.7692
2023-05-11T07:18:02.469Z,702.0769
2023-05-11T07:19:04.579Z,695.0769
2023-05-11T07:20:14.400Z,692.0769
2023-05-11T07:21:10.398Z,696.2500
2023-05-11T07:22:12.193Z,702.5385
2023-05-11T07:23:12.962Z,705.6154
2023-05-11T07:24:14.707Z,710.6923
2023-05-11T07:25:16.758Z,713.8461
2023-05-11T07:26:18.793Z,712.4615
2023-05-11T07:27:21.356Z,708.4615
2023-05-11T07:28:22.862Z,765.2308
2023-05-11T07:29:24.904Z,765.5385
2023-05-11T07:30:27.111Z,741.3077
2023-05-11T07:31:29.035Z,724.3077
2023-05-11T07:32:31.065Z,711.9231
2023-05-11T07:33:33.180Z,704.2308
2023-05-11T07:34:35.123Z,700.2308
2023-05-11T07:35:37.172Z,701.1539
2023-05-11T07:36:39.211Z,703.1539
2023-05-11T07:37:41.316Z,707.5385
2023-05-11T07:38:43.414Z,703.0000
2023-05-11T07:39:45.364Z,714.0769
2023-05-11T07:40:47.412Z,715.2308
2023-05-11T07:41:49.438Z,709.2308
2023-05-11T07:42:52.233Z,705.2308
2023-05-11T07:43:53.556Z,713.8461
2023-05-11T07:44:55.554Z,718.4615
2023-05-11T07:45:57.661Z,719.0769
2023-05-11T07:46:59.656Z,713.8461
2023-05-11T07:48:01.798Z,715.2308
2023-05-11T07:49:15.809Z,723.3846
2023-05-11T07:50:05.815Z,789.0769
2023-05-11T07:51:07.862Z,786.2308
2023-05-11T07:52:09.890Z,768.1539
2023-05-11T07:53:11.935Z,762.0000
2023-05-11T07:54:14.925Z,735.4615
2023-05-11T07:55:15.990Z,772.5385
2023-05-11T07:56:19.898Z,798.0769
2023-05-11T07:57:20.098Z,817.3846
2023-05-11T07:58:22.144Z,802.8461
2023-05-11T07:59:24.326Z,800.7692
2023-05-11T08:00:26.242Z,839.4615
2023-05-11T08:01:28.821Z,799.7692
2023-05-11T08:02:30.376Z,807.8461
2023-05-11T08:03:32.370Z,853.1539
2023-05-11T08:04:34.384Z,838.2308
2023-05-11T08:05:36.501Z,811.0769
2023-05-11T08:06:38.461Z,818.5385
2023-05-11T08:07:41.606Z,835.1539
2023-05-11T08:08:42.577Z,834.6923
2023-05-11T08:09:44.591Z,815.4615
2023-05-11T08:10:46.673Z,814.2308
2023-05-11T08:11:48.669Z,826.8461
2023-05-11T08:12:50.806Z,812.1539
2023-05-11T08:13:52.800Z,814.6154
2023-05-11T08:14:54.946Z,809.9231
2023-05-11T08:15:56.882Z,799.8461
2023-05-11T08:16:59.387Z,790.0000
2023-05-11T08:18:00.992Z,786.6923
2023-05-11T08:19:03.089Z,802.3846
2023-05-11T08:20:05.055Z,808.0000
2023-05-11T08:21:07.068Z,813.4615
2023-05-11T08:22:09.220Z,808.8461
2023-05-11T08:23:11.147Z,801.0000
2023-05-11T08:24:13.187Z,826.9231
2023-05-11T08:25:15.225Z,866.6923
2023-05-11T08:26:17.328Z,866.8461
2023-05-11T08:27:19.401Z,870.6154
2023-05-11T08:28:21.340Z,849.4615
2023-05-11T08:29:23.407Z,818.1539
2023-05-11T08:30:25.474Z,818.9231
2023-05-11T08:31:27.485Z,857.7692
2023-05-11T08:32:29.734Z,825.2308
2023-05-11T08:33:38.080Z,816.6923
2023-05-11T08:34:33.801Z,824.0769
2023-05-11T08:35:35.784Z,823.3846
2023-05-11T08:36:37.960Z,798.8461
2023-05-11T08:37:39.808Z,808.3846
2023-05-11T08:38:41.852Z,819.0769
2023-05-11T08:39:47.673Z,814.6154
2023-05-11T08:40:45.968Z,809.5385
2023-05-11T08:41:48.047Z,812.8461
2023-05-11T08:42:50.047Z,839.6923
2023-05-11T08:43:52.062Z,795.0000
2023-05-11T08:44:55.451Z,833.3077
2023-05-11T08:45:56.243Z,816.7692
2023-05-11T08:47:14.329Z,808.0000
2023-05-11T08:48:00.306Z,828.6923
2023-05-11T08:49:02.464Z,823.1539
2023-05-11T08:50:04.480Z,806.9231
2023-05-11T08:51:06.425Z,800.3846
2023-05-11T08:52:08.438Z,803.6923
2023-05-11T08:53:10.457Z,816.8461
2023-05-11T08:54:12.507Z,808.3846
2023-05-11T08:55:14.694Z,785.6154
2023-05-11T08:56:16.623Z,755.2308
2023-05-11T08:57:18.769Z,748.5385
2023-05-11T08:58:20.685Z,781.9231
2023-05-11T08:59:22.914Z,786.7692
2023-05-11T09:00:24.793Z,769.4615
2023-05-11T09:01:26.913Z,762.9231
2023-05-11T09:02:28.947Z,768.9231
2023-05-11T09:03:30.937Z,759.6154
2023-05-11T09:04:32.978Z,748.3846
2023-05-11T09:05:35.958Z,725.1539
2023-05-11T09:06:37.062Z,718.2308
2023-05-11T09:07:39.096Z,728.4615
2023-05-11T09:08:41.157Z,736.1539
2023-05-11T09:09:43.352Z,735.7692
2023-05-11T09:10:45.351Z,716.2308
2023-05-11T09:11:47.953Z,704.1539
2023-05-11T09:12:51.001Z,708.9231
2023-05-11T09:13:51.380Z,759.2500
2023-05-11T09:14:53.399Z,743.0000
2023-05-11T09:15:56.114Z,724.6923
2023-05-11T09:16:59.412Z,720.0000
2023-05-11T09:17:59.596Z,787.1539
2023-05-11T09:19:01.798Z,927.6154
2023-05-11T09:20:03.623Z,740.0000
2023-05-11T09:21:05.656Z,734.8461
2023-05-11T09:22:07.700Z,736.7692
2023-05-11T09:23:11.670Z,742.6154
2023-05-11T09:24:12.257Z,747.6154
2023-05-11T09:25:15.649Z,755.7692
2023-05-11T09:26:15.971Z,754.6154
2023-05-11T09:27:21.222Z,763.4615
2023-05-11T09:29:22.038Z,754.3077
2023-05-11T09:30:24.125Z,750.0769
2023-05-11T09:31:26.082Z,740.9231
2023-05-11T09:32:28.937Z,739.8461
2023-05-11T09:33:33.251Z,738.3077
2023-05-11T09:34:32.947Z,751.0000
2023-05-11T09:35:34.307Z,737.3077
2023-05-11T09:36:36.350Z,727.9231
2023-05-11T09:37:38.336Z,728.1539
2023-05-11T09:38:40.398Z,736.6923
2023-05-11T09:39:59.286Z,732.3846
2023-05-11T09:40:44.486Z,751.1539
2023-05-11T09:41:46.613Z,772.6923
2023-05-11T09:42:48.632Z,758.1539
2023-05-11T09:43:50.631Z,761.3077
2023-05-11T09:44:52.656Z,770.3846
2023-05-11T09:45:56.772Z,766.6154
2023-05-11T09:46:56.715Z,735.3333
2023-05-11T09:47:58.829Z,724.3077
2023-05-11T09:49:00.833Z,727.6154
2023-05-11T09:50:02.847Z,735.1539
2023-05-11T09:51:04.899Z,740.5000
2023-05-11T09:52:06.949Z,733.3846
2023-05-11T09:53:10.215Z,724.0769
2023-05-11T09:54:11.052Z,719.9231
2023-05-11T09:55:13.083Z,716.3077
2023-05-11T09:56:15.173Z,718.7692
2023-05-11T09:57:17.202Z,712.7692
2023-05-11T09:58:19.206Z,712.1539
2023-05-11T09:59:21.321Z,708.4615
2023-05-11T10:00:23.325Z,720.1539
2023-05-11T10:01:25.439Z,729.0000
2023-05-11T10:02:27.453Z,834.6154
2023-05-11T10:03:29.633Z,765.9231
2023-05-11T10:04:31.716Z,803.4615
2023-05-11T10:05:33.537Z,791.0769
2023-05-11T10:06:35.624Z,780.3077
2023-05-11T10:07:37.636Z,800.3077
2023-05-11T10:08:39.711Z,800.7692
2023-05-11T10:09:41.782Z,809.0769
2023-05-11T10:10:43.773Z,831.3077
2023-05-11T10:11:45.900Z,875.2308
2023-05-11T10:12:47.924Z,866.9231
2023-05-11T10:13:49.932Z,857.8461
2023-05-11T10:14:51.961Z,862.5385
2023-05-11T10:15:54.000Z,851.2308
2023-05-11T10:16:56.335Z,821.9231
2023-05-11T10:17:58.121Z,818.3846
2023-05-11T10:19:00.248Z,826.0000
2023-05-11T10:20:02.165Z,851.3846
2023-05-11T10:21:04.631Z,868.2308
2023-05-11T10:22:06.352Z,825.3846
2023-05-11T10:23:08.316Z,810.0769
2023-05-11T10:24:11.990Z,803.7692
2023-05-11T10:25:12.450Z,805.7692
2023-05-11T10:26:14.526Z,823.3846
2023-05-11T10:27:16.495Z,804.7692
2023-05-11T10:28:18.900Z,814.6923
2023-05-11T10:29:20.551Z,813.1539
2023-05-11T10:30:22.620Z,818.9231
2023-05-11T10:31:24.702Z,821.7692
2023-05-11T10:32:26.731Z,836.3846
2023-05-11T10:33:28.767Z,913.6923
2023-05-11T10:34:31.097Z,875.1539
2023-05-11T10:35:32.896Z,859.3846
2023-05-11T10:36:34.908Z,888.7692
2023-05-11T10:37:36.984Z,889.2308
2023-05-11T10:38:38.945Z,861.3077
2023-05-11T10:39:41.004Z,853.8461
2023-05-11T10:40:43.032Z,842.2308
2023-05-11T10:41:45.134Z,842.0769
2023-05-11T10:42:47.335Z,855.6154
2023-05-11T10:43:49.251Z,850.7692
2023-05-11T10:44:51.423Z,833.3846
2023-05-11T10:45:53.277Z,826.6923
2023-05-11T10:46:55.305Z,851.6154
2023-05-11T10:47:57.384Z,875.5385
2023-05-11T10:48:59.439Z,873.1539
2023-05-11T10:50:01.492Z,871.8461
2023-05-11T10:51:03.526Z,878.4615
2023-05-11T10:52:05.576Z,863.6923
2023-05-11T10:53:07.651Z,864.4615
2023-05-11T10:54:09.646Z,2153.2307
2023-05-11T10:55:11.688Z,915.6923
2023-05-11T10:56:13.733Z,817.9231
2023-05-11T10:57:15.756Z,813.6154
2023-05-11T10:58:17.899Z,921.3077
2023-05-11T10:59:19.856Z,840.3077
2023-05-11T11:00:22.130Z,814.3077
2023-05-11T11:01:23.968Z,810.3846
2023-05-11T11:02:26.121Z,808.3077
2023-05-11T11:03:28.065Z,795.1539
2023-05-11T11:04:30.093Z,795.6923
2023-05-11T11:05:32.168Z,797.8461
2023-05-11T11:06:34.220Z,795.0769
2023-05-11T11:07:36.242Z,786.1539
2023-05-11T11:08:38.318Z,778.8461
2023-05-11T11:09:40.360Z,773.3846
2023-05-11T11:10:42.439Z,770.1539
2023-05-11T11:11:44.422Z,783.3077
2023-05-11T11:12:46.689Z,774.7692
2023-05-11T11:13:48.568Z,774.0769
2023-05-11T11:14:50.588Z,794.0769
2023-05-11T11:15:52.569Z,803.5385
2023-05-11T11:16:54.749Z,793.7692
2023-05-11T11:17:56.713Z,794.5385
2023-05-11T11:18:58.771Z,792.1539
2023-05-11T11:20:00.802Z,797.4615
2023-05-11T11:21:02.829Z,791.3846
2023-05-11T11:22:04.856Z,804.2308
2023-05-11T11:23:06.944Z,794.1539
2023-05-11T11:24:14.525Z,769.8461
2023-05-11T11:25:11.122Z,770.9231
2023-05-11T11:26:13.185Z,770.5385
2023-05-11T11:27:15.115Z,763.0769
2023-05-11T11:28:17.181Z,763.6154
2023-05-11T11:29:20.011Z,764.0769
2023-05-11T11:30:21.330Z,763.2308
2023-05-11T11:31:24.092Z,765.0769
2023-05-11T11:32:25.444Z,777.6154
2023-05-11T11:33:27.524Z,767.6154
2023-05-11T11:34:29.495Z,769.5385
2023-05-11T11:35:31.606Z,771.8461
2023-05-11T11:36:33.557Z,792.1539
2023-05-11T11:37:35.649Z,787.4615
2023-05-11T11:38:37.664Z,777.1539
2023-05-11T11:39:39.686Z,787.0000
2023-05-11T11:40:50.609Z,839.7692
2023-05-11T11:41:43.751Z,822.6154
2023-05-11T11:42:45.825Z,816.9231
2023-05-11T11:43:47.873Z,798.3077
2023-05-11T11:44:49.931Z,781.0769
2023-05-11T11:45:51.993Z,801.2308
2023-05-11T11:46:54.013Z,787.2308
2023-05-11T11:47:56.042Z,769.7692
2023-05-11T11:48:58.082Z,760.6154
2023-05-11T11:50:01.996Z,760.0000
2023-05-11T11:51:02.160Z,760.5385
2023-05-11T11:52:04.248Z,758.5385
2023-05-11T11:53:06.305Z,761.6923
2023-05-11T11:54:08.390Z,764.3077
2023-05-11T11:55:10.465Z,767.3846
2023-05-11T11:56:12.443Z,778.5385
2023-05-11T11:57:14.462Z,778.3077
2023-05-11T11:58:16.499Z,777.0000
2023-05-11T11:59:18.577Z,774.1539
2023-05-11T12:00:20.694Z,803.8461
2023-05-11T12:01:23.527Z,774.0769
2023-05-11T12:02:24.938Z,761.6923
2023-05-11T12:03:26.750Z,787.0000
2023-05-11T12:04:28.869Z,778.3077
2023-05-11T12:05:31.561Z,771.0769
2023-05-11T12:06:32.859Z,783.6154
2023-05-11T12:07:37.314Z,808.4615
2023-05-11T12:08:42.611Z,793.0000
2023-05-11T12:09:43.835Z,781.6154
2023-05-11T12:10:45.834Z,812.0769
2023-05-11T12:11:47.898Z,814.3077
2023-05-11T12:12:49.917Z,829.6923
2023-05-11T12:13:51.980Z,836.0000
2023-05-11T12:14:54.059Z,786.5385
2023-05-11T12:15:56.051Z,788.3846
2023-05-11T12:16:58.136Z,772.7692
2023-05-11T12:18:00.214Z,779.6923
2023-05-11T12:19:02.436Z,782.0000
2023-05-11T12:20:04.266Z,774.6923
2023-05-11T12:21:06.333Z,763.6923
2023-05-11T12:22:08.336Z,765.0769
2023-05-11T12:23:10.405Z,782.9231
2023-05-11T12:24:12.539Z,778.9231
2023-05-11T12:25:14.496Z,771.0000
2023-05-11T12:26:16.523Z,742.2308
2023-05-11T12:27:18.604Z,733.8461
2023-05-11T12:28:20.632Z,729.8461
2023-05-11T12:29:22.689Z,728.5385
2023-05-11T12:30:24.777Z,730.7692
2023-05-11T12:31:26.796Z,731.3077
2023-05-11T12:32:28.839Z,736.5385
2023-05-11T12:33:30.910Z,738.3846
2023-05-11T12:34:32.923Z,737.6923
2023-05-11T12:35:34.982Z,748.3846
2023-05-11T12:36:37.021Z,744.8461
2023-05-11T12:37:39.058Z,741.6923
2023-05-11T12:38:41.108Z,736.1539
2023-05-11T12:39:43.316Z,739.2308
2023-05-11T12:40:45.318Z,752.6923
2023-05-11T12:41:47.316Z,757.7692
2023-05-11T12:42:50.062Z,766.6923
2023-05-11T12:43:51.498Z,784.1539
2023-05-11T12:44:53.482Z,782.4615
2023-05-11T12:45:55.504Z,774.2308
2023-05-11T12:46:57.540Z,767.6923
2023-05-11T12:47:59.631Z,1097.2307
2023-05-11T12:49:01.603Z,776.8461
2023-05-11T12:50:03.728Z,774.0769
2023-05-11T12:51:06.562Z,768.4615
2023-05-11T12:52:08.281Z,766.2308
2023-05-11T12:53:09.781Z,763.0000
2023-05-11T12:54:11.837Z,833.8461
2023-05-11T12:55:13.968Z,782.2308
2023-05-11T12:56:15.958Z,746.3846
2023-05-11T12:57:17.988Z,756.5385
2023-05-11T12:58:20.085Z,763.0000
2023-05-11T12:59:22.129Z,782.3846
2023-05-11T13:00:24.133Z,776.7692
2023-05-11T13:01:26.196Z,771.0000
2023-05-11T13:02:28.316Z,764.8461
2023-05-11T13:03:30.358Z,763.0000
2023-05-11T13:04:32.399Z,748.0000
2023-05-11T13:05:34.402Z,748.9231
2023-05-11T13:06:36.412Z,742.0769
2023-05-11T13:07:38.493Z,746.5385
2023-05-11T13:08:40.549Z,759.3077
2023-05-11T13:09:42.659Z,764.7692
2023-05-11T13:10:44.594Z,770.1539
2023-05-11T13:11:46.679Z,774.6923
2023-05-11T13:12:48.723Z,779.0000
2023-05-11T13:13:50.798Z,774.0769
2023-05-11T13:14:52.782Z,770.6154
2023-05-11T13:15:55.405Z,771.6923
2023-05-11T13:16:56.906Z,782.1539
2023-05-11T13:17:58.994Z,780.8461
2023-05-11T13:19:01.115Z,818.4615
2023-05-11T13:20:03.055Z,804.0000
2023-05-11T13:21:05.064Z,793.9231
2023-05-11T13:22:07.157Z,791.3846
2023-05-11T13:23:09.214Z,767.7692
2023-05-11T13:24:11.241Z,765.9231
2023-05-11T13:25:13.289Z,748.5385
2023-05-11T13:26:15.349Z,743.6923
2023-05-11T13:27:17.392Z,737.2308
2023-05-11T13:28:19.439Z,728.5000
2023-05-11T13:29:21.461Z,731.5385
2023-05-11T13:30:24.085Z,730.8461
2023-05-11T13:31:25.925Z,727.1667
2023-05-11T13:32:27.681Z,720.8461
2023-05-11T13:33:29.656Z,717.4615
2023-05-11T13:34:31.769Z,716.4615
2023-05-11T13:35:33.769Z,712.6923
2023-05-11T13:36:35.809Z,714.5385
2023-05-11T13:37:38.585Z,716.0769
2023-05-11T13:38:42.537Z,715.2308
2023-05-11T13:39:42.078Z,720.3846
2023-05-11T13:40:43.969Z,717.3077
2023-05-11T13:41:46.071Z,715.2308
2023-05-11T13:42:48.221Z,708.4615
2023-05-11T13:43:50.124Z,723.9231
2023-05-11T13:44:52.178Z,708.3846
2023-05-11T13:45:54.218Z,701.0769
2023-05-11T13:46:56.290Z,706.5385
2023-05-11T13:47:58.349Z,697.6154
2023-05-11T13:49:02.700Z,684.7692
2023-05-11T13:50:02.407Z,675.7500
2023-05-11T13:51:04.445Z,667.6923
2023-05-11T13:52:06.612Z,665.4615
2023-05-11T13:53:08.558Z,675.1539
2023-05-11T13:54:10.605Z,679.0000
2023-05-11T13:55:12.635Z,681.0769
2023-05-11T13:56:14.681Z,686.0000
2023-05-11T13:57:16.851Z,693.0000
2023-05-11T13:58:18.768Z,700.3846
2023-05-11T13:59:20.835Z,702.7692
2023-05-11T14:00:22.922Z,708.5385
2023-05-11T14:01:24.938Z,714.9231
2023-05-11T14:02:27.163Z,719.6154
2023-05-11T14:03:29.088Z,733.9231
2023-05-11T14:04:31.135Z,733.3077
2023-05-11T14:05:33.111Z,732.3077
2023-05-11T14:06:35.148Z,729.7692
2023-05-11T14:07:46.979Z,742.9231
2023-05-11T14:08:39.275Z,735.8461
2023-05-11T14:09:41.374Z,738.3846
2023-05-11T14:10:43.323Z,745.0000
2023-05-11T14:11:45.393Z,737.9231
2023-05-11T14:12:47.423Z,743.4615
2023-05-11T14:13:49.504Z,739.2308
2023-05-11T14:14:52.004Z,731.3077
2023-05-11T14:15:53.940Z,745.0000
2023-05-11T14:16:55.956Z,755.7692
2023-05-11T14:17:57.768Z,738.3846
2023-05-11T14:19:00.051Z,738.6923
2023-05-11T14:20:01.822Z,729.0000
2023-05-11T14:21:03.773Z,727.3846
2023-05-11T14:22:05.827Z,726.9231
2023-05-11T14:23:08.428Z,737.9231
2023-05-11T14:24:12.189Z,750.9231
2023-05-11T14:25:12.062Z,730.3077
2023-05-11T14:26:14.040Z,726.9231
2023-05-11T14:27:17.038Z,730.5385
2023-05-11T14:28:18.163Z,731.6923
2023-05-11T14:29:20.161Z,749.8461
2023-05-11T14:30:22.277Z,723.9231
2023-05-11T14:31:24.300Z,721.3077
2023-05-11T14:32:26.326Z,722.3077
2023-05-11T14:33:28.383Z,714.5385
2023-05-11T14:34:30.424Z,717.8461
2023-05-11T14:35:32.517Z,713.5385
2023-05-11T14:36:34.495Z,741.7692
2023-05-11T14:37:36.572Z,788.7692
2023-05-11T14:38:38.657Z,823.6923
2023-05-11T14:39:40.678Z,808.4615
2023-05-11T14:40:42.681Z,801.2308
2023-05-11T14:41:44.705Z,816.2308
2023-05-11T14:42:47.684Z,802.0769
2023-05-11T14:43:48.824Z,758.6154
2023-05-11T14:44:50.971Z,732.3077
2023-05-11T14:45:52.945Z,715.1539
2023-05-11T14:46:55.250Z,711.8461
2023-05-11T14:47:57.040Z,708.9231
2023-05-11T14:48:59.081Z,712.0769
2023-05-11T14:50:01.114Z,750.0000
2023-05-11T14:51:03.115Z,802.7692
2023-05-11T14:52:05.192Z,777.6154
2023-05-11T14:53:07.237Z,773.0000
2023-05-11T14:54:09.345Z,760.5385
2023-05-11T14:55:11.311Z,756.1539
2023-05-11T14:56:13.405Z,756.0000
2023-05-11T14:57:15.472Z,778.6923
2023-05-11T14:58:17.447Z,773.3846
2023-05-11T14:59:19.541Z,798.0769
2023-05-11T15:00:21.583Z,818.8461
2023-05-11T15:01:23.641Z,823.1539
2023-05-11T15:02:26.121Z,826.3077
2023-05-11T15:03:27.839Z,831.7692
2023-05-11T15:04:29.762Z,846.0769
2023-05-11T15:05:31.916Z,832.6154
2023-05-11T15:06:33.883Z,803.3077
2023-05-11T15:07:35.864Z,801.8461
2023-05-11T15:08:37.921Z,798.3846
2023-05-11T15:09:44.519Z,803.0000
2023-05-11T15:10:42.042Z,801.7692
2023-05-11T15:11:44.067Z,800.7692
2023-05-11T15:12:46.229Z,804.3846
2023-05-11T15:13:48.402Z,810.1539
2023-05-11T15:14:50.233Z,824.5385
2023-05-11T15:15:52.331Z,838.6154
2023-05-11T15:16:54.320Z,825.0000
2023-05-11T15:17:56.508Z,784.6923
2023-05-11T15:19:01.079Z,770.3846
2023-05-11T15:20:00.462Z,759.0000
2023-05-11T15:21:02.580Z,757.5385
2023-05-11T15:22:04.569Z,754.1539
2023-05-11T15:23:06.619Z,750.0769
2023-05-11T15:24:10.779Z,747.6154
2023-05-11T15:25:10.687Z,760.6154
2023-05-11T15:26:13.029Z,773.2308
2023-05-11T15:27:14.757Z,775.5385
2023-05-11T15:28:16.802Z,779.3846
2023-05-11T15:29:18.899Z,792.0000
2023-05-11T15:30:20.910Z,798.2308
2023-05-11T15:31:22.976Z,801.1539
2023-05-11T15:32:25.037Z,812.6923
2023-05-11T15:33:27.247Z,884.8461
2023-05-11T15:34:29.077Z,795.1539
2023-05-11T15:35:31.199Z,791.4615
2023-05-11T15:36:33.223Z,780.6154
2023-05-11T15:37:35.250Z,762.7692
2023-05-11T15:38:37.247Z,762.5385
2023-05-11T15:39:39.324Z,782.3077
2023-05-11T15:40:41.409Z,785.4615
2023-05-11T15:41:43.409Z,787.9231
2023-05-11T15:42:45.469Z,767.2308
2023-05-11T15:43:47.510Z,778.4615
2023-05-11T15:44:49.569Z,784.4615
2023-05-11T15:45:51.736Z,803.3846
2023-05-11T15:46:53.608Z,801.4615
2023-05-11T15:47:55.718Z,784.2308
2023-05-11T15:48:59.697Z,774.6154
2023-05-11T15:49:59.904Z,1018.3846
2023-05-11T15:51:01.799Z,1196.3077
2023-05-11T15:52:03.880Z,819.2308
2023-05-11T15:53:05.961Z,783.0000
2023-05-11T15:54:07.961Z,781.5385
2023-05-11T15:55:10.001Z,782.4615
2023-05-11T15:56:12.033Z,845.1539
2023-05-11T15:57:14.084Z,756.3077
2023-05-11T15:58:16.327Z,754.3846
2023-05-11T15:59:18.217Z,754.6923
2023-05-11T16:00:20.426Z,783.3077
2023-05-11T16:01:22.363Z,793.5385
2023-05-11T16:02:25.194Z,786.8461
2023-05-11T16:03:26.508Z,770.2308
2023-05-11T16:04:28.411Z,754.8461
2023-05-11T16:05:30.452Z,742.6154
2023-05-11T16:06:32.560Z,735.2308
2023-05-11T16:07:34.570Z,738.4615
2023-05-11T16:08:36.581Z,756.3077
2023-05-11T16:09:39.652Z,704.4615
2023-05-11T16:10:40.707Z,718.6154
2023-05-11T16:11:42.728Z,732.7692
2023-05-11T16:12:44.887Z,729.4615
2023-05-11T16:13:46.798Z,724.3846
2023-05-11T16:14:48.919Z,721.5385
2023-05-11T16:15:52.648Z,763.3077
2023-05-11T16:16:52.981Z,766.1539
2023-05-11T16:17:55.032Z,777.7692
2023-05-11T16:18:57.104Z,766.9231
2023-05-11T16:19:59.179Z,755.0000
2023-05-11T16:21:01.135Z,755.0769
2023-05-11T16:22:03.164Z,764.6154
2023-05-11T16:23:05.224Z,769.9231
2023-05-11T16:24:07.372Z,761.3077
2023-05-11T16:25:09.400Z,757.6154
2023-05-11T16:26:11.367Z,760.4615
2023-05-11T16:27:13.452Z,757.0769
2023-05-11T16:28:15.458Z,753.6923
2023-05-11T16:29:19.173Z,763.3077
2023-05-11T16:30:25.459Z,765.3077
2023-05-11T16:31:21.657Z,741.4167
2023-05-11T16:32:23.656Z,734.5385
2023-05-11T16:33:25.684Z,746.2308
2023-05-11T16:34:28.744Z,736.3846
2023-05-11T16:35:29.758Z,729.0000
2023-05-11T16:36:31.790Z,735.8461
2023-05-11T16:37:33.896Z,744.6154
2023-05-11T16:38:35.905Z,746.9231
2023-05-11T16:39:37.943Z,740.0000
2023-05-11T16:40:40.028Z,736.1539